sensor_id;sensor_type;location;lat;lon;timestamp;pressure;altitude;pressure_sealevel;temperature;humidity
37202;BME280;37799;52.390;6.136;2024-02-14T00:01:47;101268.56;;;7.37;100.00
37202;BME280;37799;52.390;6.136;2024-02-14T00:04:13;101262.53;;;7.39;100.00
37202;BME280;37799;52.390;6.136;2024-02-14T00:06:39;101255.69;;;7.38;100.00
37202;BME280;37799;52.390;6.136;2024-02-14T00:09:04;101254.81;;;7.38;100.00
37202;BME280;37799;52.390;6.136;2024-02-14T00:11:31;101259.06;;;7.50;100.00
37202;BME280;37799;52.390;6.136;2024-02-14T00:13:57;101263.34;;;7.49;100.00
37202;BME280;37799;52.390;6.136;2024-02-14T00:16:22;101252.16;;;7.50;100.00
37202;BME280;37799;52.390;6.136;2024-02-14T00:18:48;101258.22;;;7.46;100.00
37202;BME280;37799;52.390;6.136;2024-02-14T00:21:13;101258.19;;;7.49;100.00
37202;BME280;37799;52.390;6.136;2024-02-14T00:23:38;101252.22;;;7.46;100.00
37202;BME280;37799;52.390;6.136;2024-02-14T00:26:04;101256.44;;;7.54;100.00
37202;BME280;37799;52.390;6.136;2024-02-14T00:28:29;101253.88;;;7.53;100.00
37202;BME280;37799;52.390;6.136;2024-02-14T00:30:54;101250.44;;;7.55;100.00
37202;BME280;37799;52.390;6.136;2024-02-14T00:33:20;101244.34;;;7.62;100.00
37202;BME280;37799;52.390;6.136;2024-02-14T00:35:47;101246.94;;;7.62;100.00
37202;BME280;37799;52.390;6.136;2024-02-14T00:38:12;101233.06;;;7.79;100.00
37202;BME280;37799;52.390;6.136;2024-02-14T00:40:37;101245.06;;;7.80;100.00
37202;BME280;37799;52.390;6.136;2024-02-14T00:43:03;101251.94;;;7.81;100.00
37202;BME280;37799;52.390;6.136;2024-02-14T00:45:28;101242.44;;;7.87;100.00
37202;BME280;37799;52.390;6.136;2024-02-14T00:47:53;101232.22;;;7.77;100.00
37202;BME280;37799;52.390;6.136;2024-02-14T00:50:19;101236.63;;;7.62;100.00
37202;BME280;37799;52.390;6.136;2024-02-14T00:52:44;101235.66;;;7.76;100.00
37202;BME280;37799;52.390;6.136;2024-02-14T00:55:09;101225.34;;;7.76;100.00
37202;BME280;37799;52.390;6.136;2024-02-14T00:57:35;101219.31;;;7.78;100.00
37202;BME280;37799;52.390;6.136;2024-02-14T01:00:00;101214.97;;;7.85;100.00
37202;BME280;37799;52.390;6.136;2024-02-14T01:02:26;101214.25;;;7.67;100.00
37202;BME280;37799;52.390;6.136;2024-02-14T01:04:52;101208.19;;;7.75;100.00
37202;BME280;37799;52.390;6.136;2024-02-14T01:07:17;101214.22;;;7.72;100.00
37202;BME280;37799;52.390;6.136;2024-02-14T01:09:42;101215.06;;;7.73;100.00
37202;BME280;37799;52.390;6.136;2024-02-14T01:12:07;101212.28;;;7.98;100.00
37202;BME280;37799;52.390;6.136;2024-02-14T01:14:33;101200.44;;;7.76;100.00
37202;BME280;37799;52.390;6.136;2024-02-14T01:16:58;101196.09;;;7.81;100.00
37202;BME280;37799;52.390;6.136;2024-02-14T01:19:23;101202.97;;;7.81;100.00
37202;BME280;37799;52.390;6.136;2024-02-14T01:21:50;101200.31;;;7.90;100.00
37202;BME280;37799;52.390;6.136;2024-02-14T01:24:16;101194.13;;;8.06;100.00
37202;BME280;37799;52.390;6.136;2024-02-14T01:26:41;101185.66;;;7.93;100.00
37202;BME280;37799;52.390;6.136;2024-02-14T01:29:06;101192.41;;;8.05;100.00
37202;BME280;37799;52.390;6.136;2024-02-14T01:31:35;101189.09;;;7.92;100.00
37202;BME280;37799;52.390;6.136;2024-02-14T01:34:00;101194.25;;;7.94;100.00
37202;BME280;37799;52.390;6.136;2024-02-14T01:36:28;101195.06;;;7.99;100.00
37202;BME280;37799;52.390;6.136;2024-02-14T01:38:54;101188.97;;;8.06;100.00
37202;BME280;37799;52.390;6.136;2024-02-14T01:41:19;101183.91;;;7.97;100.00
37202;BME280;37799;52.390;6.136;2024-02-14T01:43:46;101183.91;;;7.98;100.00
37202;BME280;37799;52.390;6.136;2024-02-14T01:46:11;101178.63;;;8.11;100.00
37202;BME280;37799;52.390;6.136;2024-02-14T01:48:37;101179.50;;;8.07;100.00
37202;BME280;37799;52.390;6.136;2024-02-14T01:51:04;101182.13;;;8.04;100.00
37202;BME280;37799;52.390;6.136;2024-02-14T01:53:33;101179.63;;;7.96;100.00
37202;BME280;37799;52.390;6.136;2024-02-14T01:56:00;101171.81;;;8.02;100.00
37202;BME280;37799;52.390;6.136;2024-02-14T01:58:29;101175.22;;;8.04;100.00
37202;BME280;37799;52.390;6.136;2024-02-14T02:00:54;101174.34;;;8.08;100.00
37202;BME280;37799;52.390;6.136;2024-02-14T02:03:23;101169.13;;;8.14;100.00
37202;BME280;37799;52.390;6.136;2024-02-14T02:05:48;101169.06;;;8.22;100.00
37202;BME280;37799;52.390;6.136;2024-02-14T02:08:14;101183.53;;;8.37;100.00
37202;BME280;37799;52.390;6.136;2024-02-14T02:10:40;101166.50;;;8.17;100.00
37202;BME280;37799;52.390;6.136;2024-02-14T02:13:05;101164.66;;;8.28;100.00
37202;BME280;37799;52.390;6.136;2024-02-14T02:15:31;101165.38;;;8.44;100.00
37202;BME280;37799;52.390;6.136;2024-02-14T02:17:56;101158.59;;;8.33;100.00
37202;BME280;37799;52.390;6.136;2024-02-14T02:20:22;101163.75;;;8.36;100.00
37202;BME280;37799;52.390;6.136;2024-02-14T02:22:48;101154.31;;;8.32;100.00
37202;BME280;37799;52.390;6.136;2024-02-14T02:25:14;101159.34;;;8.47;100.00
37202;BME280;37799;52.390;6.136;2024-02-14T02:27:39;101159.31;;;8.45;100.00
37202;BME280;37799;52.390;6.136;2024-02-14T02:30:06;101157.53;;;8.52;100.00
37202;BME280;37799;52.390;6.136;2024-02-14T02:32:32;101154.19;;;8.47;100.00
37202;BME280;37799;52.390;6.136;2024-02-14T02:34:57;101147.28;;;8.46;100.00
37202;BME280;37799;52.390;6.136;2024-02-14T02:37:24;101148.03;;;8.54;100.00
37202;BME280;37799;52.390;6.136;2024-02-14T02:39:49;101169.56;;;8.54;100.00
37202;BME280;37799;52.390;6.136;2024-02-14T02:42:16;101167.00;;;8.51;100.00
37202;BME280;37799;52.390;6.136;2024-02-14T02:44:46;101167.00;;;8.53;100.00
37202;BME280;37799;52.390;6.136;2024-02-14T02:47:11;101162.59;;;8.61;100.00
37202;BME280;37799;52.390;6.136;2024-02-14T02:49:37;101165.91;;;8.69;100.00
37202;BME280;37799;52.390;6.136;2024-02-14T02:52:03;101158.19;;;8.68;100.00
37202;BME280;37799;52.390;6.136;2024-02-14T02:54:28;101166.84;;;8.65;100.00
37202;BME280;37799;52.390;6.136;2024-02-14T02:56:53;101162.50;;;8.67;100.00
37202;BME280;37799;52.390;6.136;2024-02-14T02:59:19;101180.50;;;8.75;100.00
37202;BME280;37799;52.390;6.136;2024-02-14T03:01:44;101166.59;;;8.83;100.00
37202;BME280;37799;52.390;6.136;2024-02-14T03:04:09;101162.50;;;8.67;100.00
37202;BME280;37799;52.390;6.136;2024-02-14T03:06:35;101160.81;;;8.66;100.00
37202;BME280;37799;52.390;6.136;2024-02-14T03:09:00;101173.31;;;8.95;100.00
37202;BME280;37799;52.390;6.136;2024-02-14T03:11:27;101172.56;;;8.89;100.00
37202;BME280;37799;52.390;6.136;2024-02-14T03:13:52;101172.50;;;8.92;100.00
37202;BME280;37799;52.390;6.136;2024-02-14T03:16:17;101179.34;;;8.96;100.00
37202;BME280;37799;52.390;6.136;2024-02-14T03:18:43;101170.69;;;8.98;100.00
37202;BME280;37799;52.390;6.136;2024-02-14T03:21:09;101176.88;;;8.88;100.00
37202;BME280;37799;52.390;6.136;2024-02-14T03:23:34;101178.34;;;9.06;100.00
37202;BME280;37799;52.390;6.136;2024-02-14T03:25:59;101170.72;;;8.97;100.00
37202;BME280;37799;52.390;6.136;2024-02-14T03:28:25;101174.16;;;8.99;100.00
37202;BME280;37799;52.390;6.136;2024-02-14T03:30:51;101182.78;;;8.95;100.00
37202;BME280;37799;52.390;6.136;2024-02-14T03:33:17;101168.25;;;8.89;100.00
37202;BME280;37799;52.390;6.136;2024-02-14T03:35:42;101168.06;;;9.03;100.00
37202;BME280;37799;52.390;6.136;2024-02-14T03:38:08;101170.59;;;9.06;100.00
37202;BME280;37799;52.390;6.136;2024-02-14T03:40:34;101174.97;;;9.01;100.00
37202;BME280;37799;52.390;6.136;2024-02-14T03:43:01;101175.88;;;8.97;100.00
37202;BME280;37799;52.390;6.136;2024-02-14T03:45:26;101174.19;;;8.94;100.00
37202;BME280;37799;52.390;6.136;2024-02-14T03:47:55;101168.84;;;9.06;100.00
37202;BME280;37799;52.390;6.136;2024-02-14T03:50:20;101188.59;;;9.10;100.00
37202;BME280;37799;52.390;6.136;2024-02-14T03:52:46;101174.78;;;9.14;100.00
37202;BME280;37799;52.390;6.136;2024-02-14T03:55:12;101188.38;;;9.27;100.00
37202;BME280;37799;52.390;6.136;2024-02-14T03:57:39;101185.81;;;9.26;100.00
37202;BME280;37799;52.390;6.136;2024-02-14T04:00:05;101186.63;;;9.29;100.00
37202;BME280;37799;52.390;6.136;2024-02-14T04:02:35;101187.72;;;9.13;100.00
37202;BME280;37799;52.390;6.136;2024-02-14T04:05:00;101183.34;;;9.18;100.00
37202;BME280;37799;52.390;6.136;2024-02-14T04:07:27;101187.66;;;9.16;100.00
37202;BME280;37799;52.390;6.136;2024-02-14T04:09:52;101191.03;;;9.21;100.00
37202;BME280;37799;52.390;6.136;2024-02-14T04:12:18;101200.53;;;9.19;100.00
37202;BME280;37799;52.390;6.136;2024-02-14T04:14:43;101193.69;;;9.16;100.00
37202;BME280;37799;52.390;6.136;2024-02-14T04:17:08;101205.59;;;9.28;100.00
37202;BME280;37799;52.390;6.136;2024-02-14T04:19:34;101201.25;;;9.30;100.00
37202;BME280;37799;52.390;6.136;2024-02-14T04:21:59;101199.50;;;9.31;100.00
37202;BME280;37799;52.390;6.136;2024-02-14T04:24:24;101204.66;;;9.32;100.00
37202;BME280;37799;52.390;6.136;2024-02-14T04:26:50;101213.97;;;9.42;100.00
37202;BME280;37799;52.390;6.136;2024-02-14T04:29:15;101214.81;;;9.44;100.00
37202;BME280;37799;52.390;6.136;2024-02-14T04:31:40;101219.41;;;9.26;100.00
37202;BME280;37799;52.390;6.136;2024-02-14T04:34:08;101218.34;;;9.37;100.00
37202;BME280;37799;52.390;6.136;2024-02-14T04:36:34;101210.50;;;9.43;100.00
37202;BME280;37799;52.390;6.136;2024-02-14T04:39:00;101222.63;;;9.41;100.00
37202;BME280;37799;52.390;6.136;2024-02-14T04:41:26;101215.59;;;9.51;100.00
37202;BME280;37799;52.390;6.136;2024-02-14T04:43:51;101215.53;;;9.54;100.00
37202;BME280;37799;52.390;6.136;2024-02-14T04:46:16;101213.03;;;9.46;100.00
37202;BME280;37799;52.390;6.136;2024-02-14T04:48:42;101223.50;;;9.40;100.00
37202;BME280;37799;52.390;6.136;2024-02-14T04:51:07;101217.19;;;9.57;100.00
37202;BME280;37799;52.390;6.136;2024-02-14T04:53:33;101220.66;;;9.57;100.00
37202;BME280;37799;52.390;6.136;2024-02-14T04:55:58;101213.78;;;9.55;100.00
37202;BME280;37799;52.390;6.136;2024-02-14T04:58:23;101221.72;;;9.42;100.00
37202;BME280;37799;52.390;6.136;2024-02-14T05:00:49;101220.81;;;9.45;100.00
37202;BME280;37799;52.390;6.136;2024-02-14T05:03:14;101219.78;;;9.57;100.00
37202;BME280;37799;52.390;6.136;2024-02-14T05:05:41;101228.13;;;9.74;100.00
37202;BME280;37799;52.390;6.136;2024-02-14T05:08:06;101228.19;;;9.71;100.00
37202;BME280;37799;52.390;6.136;2024-02-14T05:10:32;101222.06;;;9.75;100.00
37202;BME280;37799;52.390;6.136;2024-02-14T05:12:57;101228.31;;;9.62;100.00
37202;BME280;37799;52.390;6.136;2024-02-14T05:15:23;101235.19;;;9.63;100.00
37202;BME280;37799;52.390;6.136;2024-02-14T05:17:49;101245.50;;;9.66;100.00
37202;BME280;37799;52.390;6.136;2024-02-14T05:20:15;101242.75;;;9.75;100.00
37202;BME280;37799;52.390;6.136;2024-02-14T05:22:40;101254.81;;;9.76;100.00
37202;BME280;37799;52.390;6.136;2024-02-14T05:25:06;101258.19;;;9.81;100.00
37202;BME280;37799;52.390;6.136;2024-02-14T05:27:35;101267.69;;;9.81;100.00
37202;BME280;37799;52.390;6.136;2024-02-14T05:30:01;101264.94;;;9.91;100.00
37202;BME280;37799;52.390;6.136;2024-02-14T05:32:28;101262.31;;;9.93;100.00
37202;BME280;37799;52.390;6.136;2024-02-14T05:34:54;101269.03;;;10.04;100.00
37202;BME280;37799;52.390;6.136;2024-02-14T05:37:19;101269.25;;;9.89;100.00
37202;BME280;37799;52.390;6.136;2024-02-14T05:39:45;101273.63;;;9.86;100.00
37202;BME280;37799;52.390;6.136;2024-02-14T05:42:10;101275.16;;;9.97;100.00
37202;BME280;37799;52.390;6.136;2024-02-14T05:44:35;101269.16;;;9.95;100.00
37202;BME280;37799;52.390;6.136;2024-02-14T05:47:01;101262.34;;;9.91;100.00
37202;BME280;37799;52.390;6.136;2024-02-14T05:49:26;101276.88;;;9.98;100.00
37202;BME280;37799;52.390;6.136;2024-02-14T05:51:51;101277.69;;;10.00;100.00
37202;BME280;37799;52.390;6.136;2024-02-14T05:54:18;101275.22;;;9.94;100.00
37202;BME280;37799;52.390;6.136;2024-02-14T05:56:44;101281.16;;;9.99;100.00
37202;BME280;37799;52.390;6.136;2024-02-14T05:59:10;101285.59;;;9.93;100.00
37202;BME280;37799;52.390;6.136;2024-02-14T06:01:35;101288.03;;;10.00;100.00
37202;BME280;37799;52.390;6.136;2024-02-14T06:04:00;101288.88;;;10.02;100.00
37202;BME280;37799;52.390;6.136;2024-02-14T06:06:26;101287.34;;;9.89;100.00
37202;BME280;37799;52.390;6.136;2024-02-14T06:08:51;101288.03;;;10.00;100.00
37202;BME280;37799;52.390;6.136;2024-02-14T06:11:16;101296.59;;;10.05;100.00
37202;BME280;37799;52.390;6.136;2024-02-14T06:13:42;101298.19;;;10.13;100.00
37202;BME280;37799;52.390;6.136;2024-02-14T06:16:07;101294.00;;;10.07;100.00
37202;BME280;37799;52.390;6.136;2024-02-14T06:18:34;101301.56;;;10.18;100.00
37202;BME280;37799;52.390;6.136;2024-02-14T06:20:59;101305.19;;;10.08;100.00
37202;BME280;37799;52.390;6.136;2024-02-14T06:23:25;101304.25;;;10.12;100.00
37202;BME280;37799;52.390;6.136;2024-02-14T06:25:50;101306.69;;;10.21;100.00
37202;BME280;37799;52.390;6.136;2024-02-14T06:28:15;101315.34;;;10.20;100.00
37202;BME280;37799;52.390;6.136;2024-02-14T06:30:41;101309.47;;;10.09;100.00
37202;BME280;37799;52.390;6.136;2024-02-14T06:33:06;101312.00;;;10.12;100.00
37202;BME280;37799;52.390;6.136;2024-02-14T06:35:31;101321.56;;;10.08;100.00
37202;BME280;37799;52.390;6.136;2024-02-14T06:37:57;101328.47;;;10.08;100.00
37202;BME280;37799;52.390;6.136;2024-02-14T06:40:22;101324.91;;;10.16;100.00
37202;BME280;37799;52.390;6.136;2024-02-14T06:42:47;101329.19;;;10.17;100.00
37202;BME280;37799;52.390;6.136;2024-02-14T06:45:15;101332.84;;;10.02;100.00
37202;BME280;37799;52.390;6.136;2024-02-14T06:47:41;101337.06;;;10.10;100.00
37202;BME280;37799;52.390;6.136;2024-02-14T06:50:06;101338.59;;;10.23;100.00
37202;BME280;37799;52.390;6.136;2024-02-14T06:52:32;101340.63;;;10.04;100.00
37202;BME280;37799;52.390;6.136;2024-02-14T06:54:57;101342.97;;;10.18;100.00
37202;BME280;37799;52.390;6.136;2024-02-14T06:57:23;101348.19;;;10.16;100.00
37202;BME280;37799;52.390;6.136;2024-02-14T06:59:48;101350.78;;;10.16;100.00
37202;BME280;37799;52.390;6.136;2024-02-14T07:02:13;101350.53;;;10.33;100.00
37202;BME280;37799;52.390;6.136;2024-02-14T07:04:38;101353.13;;;10.33;100.00
37202;BME280;37799;52.390;6.136;2024-02-14T07:07:04;101357.53;;;10.26;100.00
37202;BME280;37799;52.390;6.136;2024-02-14T07:09:29;101360.09;;;10.28;100.00
37202;BME280;37799;52.390;6.136;2024-02-14T07:11:54;101365.25;;;10.28;100.00
37202;BME280;37799;52.390;6.136;2024-02-14T07:14:23;101372.84;;;10.39;100.00
37202;BME280;37799;52.390;6.136;2024-02-14T07:16:48;101369.63;;;10.24;100.00
37202;BME280;37799;52.390;6.136;2024-02-14T07:19:13;101366.94;;;10.32;100.00
37202;BME280;37799;52.390;6.136;2024-02-14T07:21:39;101378.00;;;10.42;100.00
37202;BME280;37799;52.390;6.136;2024-02-14T07:24:05;101376.19;;;10.47;100.00
37202;BME280;37799;52.390;6.136;2024-02-14T07:26:30;101378.94;;;10.36;100.00
37202;BME280;37799;52.390;6.136;2024-02-14T07:28:56;101379.88;;;10.32;100.00
37202;BME280;37799;52.390;6.136;2024-02-14T07:31:21;101372.34;;;10.14;100.00
37202;BME280;37799;52.390;6.136;2024-02-14T07:33:46;101373.06;;;10.25;100.00
37202;BME280;37799;52.390;6.136;2024-02-14T07:36:13;101380.75;;;10.31;100.00
37202;BME280;37799;52.390;6.136;2024-02-14T07:38:39;101373.81;;;10.33;100.00
37202;BME280;37799;52.390;6.136;2024-02-14T07:41:04;101378.38;;;10.16;100.00
37202;BME280;37799;52.390;6.136;2024-02-14T07:43:29;101382.53;;;10.29;100.00
37202;BME280;37799;52.390;6.136;2024-02-14T07:45:54;101377.22;;;10.35;100.00
37202;BME280;37799;52.390;6.136;2024-02-14T07:48:20;101376.53;;;10.25;100.00
37202;BME280;37799;52.390;6.136;2024-02-14T07:50:47;101379.13;;;10.24;100.00
37202;BME280;37799;52.390;6.136;2024-02-14T07:53:13;101382.47;;;10.32;100.00
37202;BME280;37799;52.390;6.136;2024-02-14T07:55:38;101384.31;;;10.24;100.00
37202;BME280;37799;52.390;6.136;2024-02-14T07:58:04;101378.31;;;10.22;100.00
37202;BME280;37799;52.390;6.136;2024-02-14T08:00:29;101385.03;;;10.33;100.00
37202;BME280;37799;52.390;6.136;2024-02-14T08:02:54;101384.25;;;10.27;100.00
37202;BME280;37799;52.390;6.136;2024-02-14T08:05:20;101387.84;;;10.15;100.00
37202;BME280;37799;52.390;6.136;2024-02-14T08:07:45;101377.38;;;10.26;100.00
37202;BME280;37799;52.390;6.136;2024-02-14T08:10:11;101387.72;;;10.26;100.00
37202;BME280;37799;52.390;6.136;2024-02-14T08:12:37;101379.06;;;10.30;100.00
37202;BME280;37799;52.390;6.136;2024-02-14T08:15:02;101386.63;;;10.41;100.00
37202;BME280;37799;52.390;6.136;2024-02-14T08:17:31;101390.31;;;10.26;100.00
37202;BME280;37799;52.390;6.136;2024-02-14T08:19:56;101396.19;;;10.37;100.00
37202;BME280;37799;52.390;6.136;2024-02-14T08:22:21;101397.22;;;10.25;100.00
37202;BME280;37799;52.390;6.136;2024-02-14T08:24:47;101396.97;;;10.41;100.00
37202;BME280;37799;52.390;6.136;2024-02-14T08:27:12;101406.47;;;10.43;100.00
37202;BME280;37799;52.390;6.136;2024-02-14T08:29:38;101402.16;;;10.41;100.00
37202;BME280;37799;52.390;6.136;2024-02-14T08:32:03;101400.41;;;10.44;100.00
37202;BME280;37799;52.390;6.136;2024-02-14T08:34:30;101405.63;;;10.40;100.00
37202;BME280;37799;52.390;6.136;2024-02-14T08:36:55;101405.28;;;10.61;100.00
37202;BME280;37799;52.390;6.136;2024-02-14T08:39:20;101406.47;;;10.43;100.00
37202;BME280;37799;52.390;6.136;2024-02-14T08:41:46;101408.03;;;10.50;100.00
37202;BME280;37799;52.390;6.136;2024-02-14T08:44:12;101407.09;;;10.54;100.00
37202;BME280;37799;52.390;6.136;2024-02-14T08:46:38;101411.31;;;10.61;100.00
37202;BME280;37799;52.390;6.136;2024-02-14T08:49:04;101418.00;;;10.75;100.00
37202;BME280;37799;52.390;6.136;2024-02-14T08:51:35;101426.13;;;10.53;100.00
37202;BME280;37799;52.390;6.136;2024-02-14T08:54:00;101416.59;;;10.54;100.00
37202;BME280;37799;52.390;6.136;2024-02-14T08:56:28;101427.78;;;10.59;100.00
37202;BME280;37799;52.390;6.136;2024-02-14T08:58:53;101424.38;;;10.54;100.00
37202;BME280;37799;52.390;6.136;2024-02-14T09:01:18;101423.31;;;10.69;100.00
37202;BME280;37799;52.390;6.136;2024-02-14T09:03:46;101420.75;;;10.64;100.00
37202;BME280;37799;52.390;6.136;2024-02-14T09:06:13;101426.50;;;10.83;100.00
37202;BME280;37799;52.390;6.136;2024-02-14T09:08:39;101430.13;;;10.73;100.00
37202;BME280;37799;52.390;6.136;2024-02-14T09:11:05;101423.44;;;10.59;100.00
37202;BME280;37799;52.390;6.136;2024-02-14T09:13:31;101426.59;;;10.77;100.00
37202;BME280;37799;52.390;6.136;2024-02-14T09:15:56;101427.41;;;10.79;100.00
37202;BME280;37799;52.390;6.136;2024-02-14T09:18:21;101429.19;;;10.77;100.00
37202;BME280;37799;52.390;6.136;2024-02-14T09:20:46;101428.25;;;10.82;100.00
37202;BME280;37799;52.390;6.136;2024-02-14T09:23:13;101433.19;;;10.93;100.00
37202;BME280;37799;52.390;6.136;2024-02-14T09:25:39;101437.72;;;10.83;100.00
37202;BME280;37799;52.390;6.136;2024-02-14T09:28:05;101433.19;;;10.93;100.00
37202;BME280;37799;52.390;6.136;2024-02-14T09:30:31;101436.53;;;11.01;100.00
37202;BME280;37799;52.390;6.136;2024-02-14T09:32:57;101430.63;;;10.95;100.00
37202;BME280;37799;52.390;6.136;2024-02-14T09:35:22;101438.94;;;11.12;100.00
37202;BME280;37799;52.390;6.136;2024-02-14T09:37:49;101448.53;;;11.07;100.00
37202;BME280;37799;52.390;6.136;2024-02-14T09:40:14;101441.72;;;11.01;100.00
37202;BME280;37799;52.390;6.136;2024-02-14T09:42:44;101443.56;;;10.93;100.00
37202;BME280;37799;52.390;6.136;2024-02-14T09:45:12;101446.88;;;11.01;100.00
37202;BME280;37799;52.390;6.136;2024-02-14T09:47:39;101457.34;;;10.97;100.00
37202;BME280;37799;52.390;6.136;2024-02-14T09:50:06;101452.44;;;10.80;100.00
37202;BME280;37799;52.390;6.136;2024-02-14T09:52:33;101460.63;;;11.05;100.00
37202;BME280;37799;52.390;6.136;2024-02-14T09:54:58;101460.78;;;10.97;100.00
37202;BME280;37799;52.390;6.136;2024-02-14T09:57:24;101460.56;;;11.09;100.00
37202;BME280;37799;52.390;6.136;2024-02-14T09:59:51;101456.50;;;10.96;100.00
37202;BME280;37799;52.390;6.136;2024-02-14T10:02:17;101469.25;;;11.08;100.00
37202;BME280;37799;52.390;6.136;2024-02-14T10:04:43;101457.47;;;10.89;100.00
37202;BME280;37799;52.390;6.136;2024-02-14T10:07:08;101457.09;;;11.10;100.00
37202;BME280;37799;52.390;6.136;2024-02-14T10:09:40;101451.84;;;11.13;100.00
37202;BME280;37799;52.390;6.136;2024-02-14T10:12:07;101447.41;;;11.21;100.00
37202;BME280;37799;52.390;6.136;2024-02-14T10:14:34;101448.84;;;11.36;100.00
37202;BME280;37799;52.390;6.136;2024-02-14T10:17:00;101447.59;;;11.54;100.00
37202;BME280;37799;52.390;6.136;2024-02-14T10:19:25;101452.06;;;11.47;100.00
37202;BME280;37799;52.390;6.136;2024-02-14T10:22:00;101463.22;;;11.51;100.00
37202;BME280;37799;52.390;6.136;2024-02-14T10:24:28;101471.59;;;11.65;100.00
37202;BME280;37799;52.390;6.136;2024-02-14T10:26:54;101473.44;;;11.60;100.00
37202;BME280;37799;52.390;6.136;2024-02-14T10:29:22;101469.97;;;11.61;100.00
37202;BME280;37799;52.390;6.136;2024-02-14T10:31:48;101488.75;;;11.72;100.00
37202;BME280;37799;52.390;6.136;2024-02-14T10:34:13;101484.84;;;11.51;100.00
37202;BME280;37799;52.390;6.136;2024-02-14T10:36:42;101485.63;;;11.55;100.00
37202;BME280;37799;52.390;6.136;2024-02-14T10:39:09;101485.94;;;11.40;100.00
37202;BME280;37799;52.390;6.136;2024-02-14T10:41:36;101492.66;;;11.50;100.00
37202;BME280;37799;52.390;6.136;2024-02-14T10:44:05;101493.66;;;11.41;100.00
37202;BME280;37799;52.390;6.136;2024-02-14T10:46:32;101483.19;;;11.47;100.00
37202;BME280;37799;52.390;6.136;2024-02-14T10:49:02;101501.44;;;11.41;100.00
37202;BME280;37799;52.390;6.136;2024-02-14T10:51:30;101496.13;;;11.49;100.00
37202;BME280;37799;52.390;6.136;2024-02-14T10:53:57;101491.25;;;11.34;100.00
37202;BME280;37799;52.390;6.136;2024-02-14T10:56:27;101491.84;;;11.48;100.00
37202;BME280;37799;52.390;6.136;2024-02-14T10:58:56;101492.78;;;11.42;100.00
37202;BME280;37799;52.390;6.136;2024-02-14T11:01:26;101488.31;;;11.50;100.00
37202;BME280;37799;52.390;6.136;2024-02-14T11:03:53;101496.75;;;11.62;100.00
37202;BME280;37799;52.390;6.136;2024-02-14T11:06:21;101492.44;;;11.61;100.00
37202;BME280;37799;52.390;6.136;2024-02-14T11:09:03;101490.88;;;11.52;100.00
37202;BME280;37799;52.390;6.136;2024-02-14T11:11:33;101492.41;;;11.62;100.00
37202;BME280;37799;52.390;6.136;2024-02-14T11:13:58;101492.59;;;11.53;100.00
37202;BME280;37799;52.390;6.136;2024-02-14T11:16:27;101489.88;;;11.59;100.00
37202;BME280;37799;52.390;6.136;2024-02-14T11:19:14;101490.09;;;11.48;100.00
37202;BME280;37799;52.390;6.136;2024-02-14T11:21:42;101487.19;;;11.64;100.00
37202;BME280;37799;52.390;6.136;2024-02-14T11:24:10;101496.53;;;11.72;100.00
37202;BME280;37799;52.390;6.136;2024-02-14T11:26:57;101496.41;;;11.80;100.00
37202;BME280;37799;52.390;6.136;2024-02-14T11:29:29;101493.94;;;11.71;100.00
37202;BME280;37799;52.390;6.136;2024-02-14T11:31:59;101488.88;;;11.66;100.00
37202;BME280;37799;52.390;6.136;2024-02-14T11:34:25;101484.47;;;11.70;100.00
37202;BME280;37799;52.390;6.136;2024-02-14T11:36:51;101491.34;;;11.71;100.00
37202;BME280;37799;52.390;6.136;2024-02-14T11:39:17;101487.91;;;11.70;100.00
37202;BME280;37799;52.390;6.136;2024-02-14T11:41:42;101488.75;;;11.71;100.00
37202;BME280;37799;52.390;6.136;2024-02-14T11:44:08;101486.75;;;11.87;100.00
37202;BME280;37799;52.390;6.136;2024-02-14T11:46:35;101473.81;;;11.84;100.00
37202;BME280;37799;52.390;6.136;2024-02-14T11:49:05;101480.34;;;11.61;100.00
37202;BME280;37799;52.390;6.136;2024-02-14T11:51:32;101480.13;;;11.70;100.00
37202;BME280;37799;52.390;6.136;2024-02-14T11:53:58;101478.66;;;11.57;100.00
37202;BME280;37799;52.390;6.136;2024-02-14T11:56:32;101474.31;;;11.59;100.00
37202;BME280;37799;52.390;6.136;2024-02-14T11:59:01;101464.81;;;11.58;100.00
37202;BME280;37799;52.390;6.136;2024-02-14T12:01:34;101473.47;;;11.57;100.00
37202;BME280;37799;52.390;6.136;2024-02-14T12:04:01;101465.41;;;11.72;100.00
37202;BME280;37799;52.390;6.136;2024-02-14T12:06:31;101477.66;;;11.64;100.00
37202;BME280;37799;52.390;6.136;2024-02-14T12:09:03;101474.94;;;11.70;100.00
37202;BME280;37799;52.390;6.136;2024-02-14T12:11:33;101477.09;;;11.50;100.00
37202;BME280;37799;52.390;6.136;2024-02-14T12:14:02;101475.06;;;11.64;100.00
37202;BME280;37799;52.390;6.136;2024-02-14T12:16:30;101472.44;;;11.66;100.00
37202;BME280;37799;52.390;6.136;2024-02-14T12:19:07;101466.22;;;11.74;100.00
37202;BME280;37799;52.390;6.136;2024-02-14T12:21:36;101470.59;;;11.72;100.00
37202;BME280;37799;52.390;6.136;2024-02-14T12:24:12;101468.25;;;11.60;100.00
37202;BME280;37799;52.390;6.136;2024-02-14T12:26:42;101466.44;;;11.64;100.00
37202;BME280;37799;52.390;6.136;2024-02-14T12:29:08;101457.72;;;11.66;100.00
37202;BME280;37799;52.390;6.136;2024-02-14T12:31:35;101465.00;;;11.49;100.00
37202;BME280;37799;52.390;6.136;2024-02-14T12:34:03;101470.78;;;11.63;100.00
37202;BME280;37799;52.390;6.136;2024-02-14T12:36:30;101464.13;;;11.50;100.00
37202;BME280;37799;52.390;6.136;2024-02-14T12:38:55;101466.25;;;11.71;100.00
37202;BME280;37799;52.390;6.136;2024-02-14T12:41:21;101457.25;;;11.47;100.00